sensor_id;sensor_type;location;lat;lon;timestamp;pressure;altitude;pressure_sealevel;temperature;humidity
37170;BME280;23062;13.952;100.608;2023-07-02T00:03:37;1008.20;;;31.47;71.34
37170;BME280;23062;13.952;100.608;2023-07-02T00:08:04;1008.26;;;31.47;71.84
37170;BME280;23062;13.952;100.608;2023-07-02T00:12:30;1008.26;;;31.50;71.80
37170;BME280;23062;13.952;100.608;2023-07-02T00:17:00;1008.32;;;31.58;71.59
37170;BME280;23062;13.952;100.608;2023-07-02T00:21:31;1008.39;;;31.60;71.58
37170;BME280;23062;13.952;100.608;2023-07-02T00:26:03;1008.37;;;31.65;71.57
37170;BME280;23062;13.952;100.608;2023-07-02T00:30:31;1008.40;;;31.66;71.56
37170;BME280;23062;13.952;100.608;2023-07-02T00:34:59;1008.40;;;31.67;70.98
37170;BME280;23062;13.952;100.608;2023-07-02T00:39:25;1008.43;;;31.66;70.69
37170;BME280;23062;13.952;100.608;2023-07-02T00:43:52;1008.47;;;31.68;70.38
37170;BME280;23062;13.952;100.608;2023-07-02T00:48:23;1008.48;;;31.66;70.25
37170;BME280;23062;13.952;100.608;2023-07-02T00:52:51;1008.51;;;31.65;69.78
37170;BME280;23062;13.952;100.608;2023-07-02T01:01:54;1008.60;;;31.57;67.27
37170;BME280;23062;13.952;100.608;2023-07-02T01:06:26;1008.70;;;31.57;66.57
37170;BME280;23062;13.952;100.608;2023-07-02T01:10:53;1008.73;;;31.56;66.14
37170;BME280;23062;13.952;100.608;2023-07-02T01:15:28;1008.82;;;31.58;66.34
37170;BME280;23062;13.952;100.608;2023-07-02T01:19:55;1008.84;;;31.58;66.31
37170;BME280;23062;13.952;100.608;2023-07-02T01:24:23;1008.87;;;31.57;66.45
37170;BME280;23062;13.952;100.608;2023-07-02T01:28:51;1008.80;;;31.60;65.82
37170;BME280;23062;13.952;100.608;2023-07-02T01:33:18;1008.82;;;31.62;65.84
37170;BME280;23062;13.952;100.608;2023-07-02T01:37:51;1008.83;;;31.65;65.60
37170;BME280;23062;13.952;100.608;2023-07-02T01:42:19;1008.90;;;31.67;65.34
37170;BME280;23062;13.952;100.608;2023-07-02T01:46:45;1008.91;;;31.67;65.66
37170;BME280;23062;13.952;100.608;2023-07-02T01:51:20;1008.92;;;31.69;65.18
37170;BME280;23062;13.952;100.608;2023-07-02T01:55:46;1008.93;;;31.70;64.90
37170;BME280;23062;13.952;100.608;2023-07-02T02:00:21;1008.96;;;31.71;65.44
37170;BME280;23062;13.952;100.608;2023-07-02T02:04:49;1008.87;;;31.75;65.08
37170;BME280;23062;13.952;100.608;2023-07-02T02:09:17;1008.93;;;31.77;65.04
37170;BME280;23062;13.952;100.608;2023-07-02T02:13:43;1008.94;;;31.75;63.35
37170;BME280;23062;13.952;100.608;2023-07-02T02:18:11;1008.95;;;31.74;62.86
37170;BME280;23062;13.952;100.608;2023-07-02T02:22:38;1008.98;;;31.77;62.65
37170;BME280;23062;13.952;100.608;2023-07-02T02:27:04;1008.98;;;31.77;60.91
37170;BME280;23062;13.952;100.608;2023-07-02T02:31:37;1008.91;;;31.81;62.10
37170;BME280;23062;13.952;100.608;2023-07-02T02:36:13;1008.93;;;31.85;62.24
37170;BME280;23062;13.952;100.608;2023-07-02T02:40:40;1009.00;;;31.84;61.34
37170;BME280;23062;13.952;100.608;2023-07-02T02:45:09;1008.97;;;31.86;61.19
37170;BME280;23062;13.952;100.608;2023-07-02T02:49:37;1008.96;;;31.89;61.06
37170;BME280;23062;13.952;100.608;2023-07-02T02:54:03;1008.88;;;31.93;61.21
37170;BME280;23062;13.952;100.608;2023-07-02T02:58:31;1008.88;;;31.97;61.46
37170;BME280;23062;13.952;100.608;2023-07-02T03:02:58;1008.90;;;31.97;61.36
37170;BME280;23062;13.952;100.608;2023-07-02T03:07:25;1008.81;;;32.01;61.50
37170;BME280;23062;13.952;100.608;2023-07-02T03:11:51;1008.81;;;32.01;61.88
37170;BME280;23062;13.952;100.608;2023-07-02T03:16:23;1008.84;;;32.03;61.77
37170;BME280;23062;13.952;100.608;2023-07-02T03:20:49;1008.83;;;32.04;60.99
37170;BME280;23062;13.952;100.608;2023-07-02T03:25:15;1008.86;;;32.06;60.02
37170;BME280;23062;13.952;100.608;2023-07-02T03:29:43;1008.89;;;32.08;60.29
37170;BME280;23062;13.952;100.608;2023-07-02T03:34:10;1008.88;;;32.10;60.43
37170;BME280;23062;13.952;100.608;2023-07-02T03:38:38;1008.88;;;32.12;60.44
37170;BME280;23062;13.952;100.608;2023-07-02T03:43:11;1008.80;;;32.12;60.02
37170;BME280;23062;13.952;100.608;2023-07-02T03:47:38;1008.67;;;32.16;59.78
37170;BME280;23062;13.952;100.608;2023-07-02T03:52:05;1008.59;;;32.16;59.38
37170;BME280;23062;13.952;100.608;2023-07-02T03:56:34;1008.49;;;32.19;59.24
37170;BME280;23062;13.952;100.608;2023-07-02T04:01:01;1008.44;;;32.22;59.50
37170;BME280;23062;13.952;100.608;2023-07-02T04:05:36;1008.49;;;32.22;59.60
37170;BME280;23062;13.952;100.608;2023-07-02T04:10:13;1008.45;;;32.21;59.84
37170;BME280;23062;13.952;100.608;2023-07-02T04:14:45;1008.50;;;32.26;59.42
37170;BME280;23062;13.952;100.608;2023-07-02T04:19:19;1008.44;;;32.26;59.54
37170;BME280;23062;13.952;100.608;2023-07-02T04:23:48;1008.42;;;32.27;59.61
37170;BME280;23062;13.952;100.608;2023-07-02T04:28:22;1008.35;;;32.29;59.97
37170;BME280;23062;13.952;100.608;2023-07-02T04:32:50;1008.34;;;32.30;60.08
37170;BME280;23062;13.952;100.608;2023-07-02T04:37:17;1008.30;;;32.29;59.94
37170;BME280;23062;13.952;100.608;2023-07-02T04:41:50;1008.25;;;32.33;59.28
37170;BME280;23062;13.952;100.608;2023-07-02T04:46:24;1008.20;;;32.33;58.98
37170;BME280;23062;13.952;100.608;2023-07-02T04:50:59;1008.10;;;32.33;59.21
37170;BME280;23062;13.952;100.608;2023-07-02T04:55:27;1008.03;;;32.35;59.29
37170;BME280;23062;13.952;100.608;2023-07-02T04:59:52;1007.92;;;32.37;59.57
37170;BME280;23062;13.952;100.608;2023-07-02T05:04:20;1007.76;;;32.39;59.88
37170;BME280;23062;13.952;100.608;2023-07-02T05:08:46;1007.68;;;32.37;59.79
37170;BME280;23062;13.952;100.608;2023-07-02T05:13:13;1007.61;;;32.41;59.65
37170;BME280;23062;13.952;100.608;2023-07-02T05:17:45;1007.51;;;32.42;59.46
37170;BME280;23062;13.952;100.608;2023-07-02T05:22:20;1007.47;;;32.42;59.43
37170;BME280;23062;13.952;100.608;2023-07-02T05:26:56;1007.38;;;32.43;59.34
37170;BME280;23062;13.952;100.608;2023-07-02T05:31:24;1007.40;;;32.45;59.29
37170;BME280;23062;13.952;100.608;2023-07-02T05:35:52;1007.42;;;32.48;59.56
37170;BME280;23062;13.952;100.608;2023-07-02T05:40:20;1007.26;;;32.50;59.48
37170;BME280;23062;13.952;100.608;2023-07-02T05:44:46;1007.19;;;32.50;58.97
37170;BME280;23062;13.952;100.608;2023-07-02T05:49:19;1007.08;;;32.49;59.45
37170;BME280;23062;13.952;100.608;2023-07-02T05:53:46;1007.04;;;32.51;59.76
37170;BME280;23062;13.952;100.608;2023-07-02T05:58:14;1007.06;;;32.50;59.76
37170;BME280;23062;13.952;100.608;2023-07-02T06:02:42;1006.97;;;32.51;59.66
37170;BME280;23062;13.952;100.608;2023-07-02T06:07:17;1006.91;;;32.52;59.32
37170;BME280;23062;13.952;100.608;2023-07-02T06:11:44;1006.83;;;32.51;58.98
37170;BME280;23062;13.952;100.608;2023-07-02T06:16:13;1006.73;;;32.50;59.50
37170;BME280;23062;13.952;100.608;2023-07-02T06:20:40;1006.61;;;32.51;59.37
37170;BME280;23062;13.952;100.608;2023-07-02T06:25:12;1006.49;;;32.53;59.41
37170;BME280;23062;13.952;100.608;2023-07-02T06:29:43;1006.46;;;32.53;59.57
37170;BME280;23062;13.952;100.608;2023-07-02T06:34:17;1006.43;;;32.52;59.54
37170;BME280;23062;13.952;100.608;2023-07-02T06:38:43;1006.36;;;32.54;59.22
37170;BME280;23062;13.952;100.608;2023-07-02T06:43:16;1006.31;;;32.51;59.46
37170;BME280;23062;13.952;100.608;2023-07-02T06:47:42;1006.25;;;32.52;59.36
37170;BME280;23062;13.952;100.608;2023-07-02T06:52:08;1006.21;;;32.54;59.09
37170;BME280;23062;13.952;100.608;2023-07-02T06:56:38;1006.16;;;32.60;59.10
37170;BME280;23062;13.952;100.608;2023-07-02T07:01:05;1006.10;;;32.62;58.88
37170;BME280;23062;13.952;100.608;2023-07-02T07:05:33;1006.08;;;32.70;58.53
37170;BME280;23062;13.952;100.608;2023-07-02T07:10:00;1006.01;;;32.71;58.85
37170;BME280;23062;13.952;100.608;2023-07-02T07:14:33;1005.82;;;32.72;59.35
37170;BME280;23062;13.952;100.608;2023-07-02T07:19:06;1005.77;;;32.78;59.30
37170;BME280;23062;13.952;100.608;2023-07-02T07:23:40;1005.67;;;32.80;59.07
37170;BME280;23062;13.952;100.608;2023-07-02T07:28:06;1005.64;;;32.83;59.25
37170;BME280;23062;13.952;100.608;2023-07-02T07:32:34;1005.54;;;32.87;59.17
37170;BME280;23062;13.952;100.608;2023-07-02T07:37:07;1005.51;;;32.85;58.86
37170;BME280;23062;13.952;100.608;2023-07-02T07:41:33;1005.49;;;32.87;59.09
37170;BME280;23062;13.952;100.608;2023-07-02T07:45:59;1005.45;;;32.90;59.00
37170;BME280;23062;13.952;100.608;2023-07-02T07:50:29;1005.46;;;32.92;58.68
37170;BME280;23062;13.952;100.608;2023-07-02T07:54:56;1005.40;;;32.91;58.76
37170;BME280;23062;13.952;100.608;2023-07-02T07:59:22;1005.34;;;32.91;58.56
37170;BME280;23062;13.952;100.608;2023-07-02T08:03:54;1005.34;;;32.95;58.80
37170;BME280;23062;13.952;100.608;2023-07-02T08:08:20;1005.32;;;32.99;58.86
37170;BME280;23062;13.952;100.608;2023-07-02T08:12:49;1005.18;;;32.97;59.00
37170;BME280;23062;13.952;100.608;2023-07-02T08:17:20;1005.17;;;32.99;58.86
37170;BME280;23062;13.952;100.608;2023-07-02T08:21:47;1005.10;;;32.95;58.85
37170;BME280;23062;13.952;100.608;2023-07-02T08:26:13;1005.05;;;32.99;59.07
37170;BME280;23062;13.952;100.608;2023-07-02T08:30:39;1005.02;;;33.02;58.46
37170;BME280;23062;13.952;100.608;2023-07-02T08:35:11;1004.93;;;33.01;58.63
37170;BME280;23062;13.952;100.608;2023-07-02T08:39:39;1004.80;;;33.00;58.82
37170;BME280;23062;13.952;100.608;2023-07-02T08:44:08;1004.65;;;33.01;58.40
37170;BME280;23062;13.952;100.608;2023-07-02T08:53:05;1004.50;;;32.99;57.45
37170;BME280;23062;13.952;100.608;2023-07-02T08:57:35;1004.68;;;32.98;57.50
37170;BME280;23062;13.952;100.608;2023-07-02T09:02:01;1004.68;;;32.97;57.33
37170;BME280;23062;13.952;100.608;2023-07-02T09:06:28;1004.61;;;32.93;57.92
37170;BME280;23062;13.952;100.608;2023-07-02T09:11:05;1004.65;;;32.90;58.69
37170;BME280;23062;13.952;100.608;2023-07-02T09:15:26;1004.99;;;32.85;58.97
37170;BME280;23062;13.952;100.608;2023-07-02T09:20:01;1004.97;;;32.82;59.26
37170;BME280;23062;13.952;100.608;2023-07-02T09:24:29;1004.78;;;32.82;59.58
37170;BME280;23062;13.952;100.608;2023-07-02T09:29:02;1004.76;;;32.78;60.22
37170;BME280;23062;13.952;100.608;2023-07-02T09:33:29;1004.83;;;32.76;60.61
37170;BME280;23062;13.952;100.608;2023-07-02T09:37:57;1004.91;;;32.77;60.91
37170;BME280;23062;13.952;100.608;2023-07-02T09:42:30;1005.04;;;32.75;61.24
37170;BME280;23062;13.952;100.608;2023-07-02T09:47:03;1005.05;;;32.76;61.41
37170;BME280;23062;13.952;100.608;2023-07-02T09:51:30;1004.93;;;32.75;61.34
37170;BME280;23062;13.952;100.608;2023-07-02T09:55:57;1004.94;;;32.72;61.27
37170;BME280;23062;13.952;100.608;2023-07-02T10:00:24;1005.05;;;32.75;61.29
37170;BME280;23062;13.952;100.608;2023-07-02T10:04:50;1005.17;;;32.71;61.52
37170;BME280;23062;13.952;100.608;2023-07-02T10:09:21;1005.11;;;32.73;61.76
37170;BME280;23062;13.952;100.608;2023-07-02T10:13:57;1005.05;;;32.68;61.94
37170;BME280;23062;13.952;100.608;2023-07-02T10:18:18;1005.20;;;32.72;61.96
37170;BME280;23062;13.952;100.608;2023-07-02T10:22:50;1005.26;;;32.71;61.86
37170;BME280;23062;13.952;100.608;2023-07-02T10:27:12;1005.44;;;32.72;61.52
37170;BME280;23062;13.952;100.608;2023-07-02T10:31:54;1005.66;;;32.72;61.56
37170;BME280;23062;13.952;100.608;2023-07-02T10:36:24;1005.82;;;32.70;61.97
37170;BME280;23062;13.952;100.608;2023-07-02T10:41:00;1005.81;;;32.69;62.04
37170;BME280;23062;13.952;100.608;2023-07-02T10:45:35;1005.75;;;32.68;62.19
37170;BME280;23062;13.952;100.608;2023-07-02T10:50:01;1005.82;;;32.68;62.26
37170;BME280;23062;13.952;100.608;2023-07-02T10:54:38;1006.22;;;32.64;62.96
37170;BME280;23062;13.952;100.608;2023-07-02T10:58:55;1007.04;;;32.57;65.27
37170;BME280;23062;13.952;100.608;2023-07-02T11:03:25;1006.72;;;32.40;64.57
37170;BME280;23062;13.952;100.608;2023-07-02T11:08:08;1006.85;;;32.20;63.48
37170;BME280;23062;13.952;100.608;2023-07-02T11:12:34;1006.69;;;32.00;63.00
37170;BME280;23062;13.952;100.608;2023-07-02T11:17:07;1006.74;;;31.71;62.82
37170;BME280;23062;13.952;100.608;2023-07-02T11:21:36;1006.65;;;31.76;62.37
37170;BME280;23062;13.952;100.608;2023-07-02T11:26:03;1006.82;;;31.73;62.52
37170;BME280;23062;13.952;100.608;2023-07-02T11:30:28;1007.02;;;31.67;62.51
37170;BME280;23062;13.952;100.608;2023-07-02T11:34:57;1006.95;;;31.60;62.81
37170;BME280;23062;13.952;100.608;2023-07-02T11:39:25;1006.69;;;31.53;63.26
37170;BME280;23062;13.952;100.608;2023-07-02T11:43:51;1006.63;;;31.54;63.49
37170;BME280;23062;13.952;100.608;2023-07-02T11:48:24;1006.63;;;31.47;63.53
37170;BME280;23062;13.952;100.608;2023-07-02T11:52:51;1006.80;;;31.50;63.29
37170;BME280;23062;13.952;100.608;2023-07-02T11:57:26;1007.02;;;31.27;63.80
37170;BME280;23062;13.952;100.608;2023-07-02T12:01:53;1007.19;;;31.41;63.80
37170;BME280;23062;13.952;100.608;2023-07-02T12:06:27;1007.29;;;31.36;64.47
37170;BME280;23062;13.952;100.608;2023-07-02T12:10:53;1007.46;;;31.36;64.30
37170;BME280;23062;13.952;100.608;2023-07-02T12:15:20;1007.73;;;31.31;64.34
37170;BME280;23062;13.952;100.608;2023-07-02T12:19:55;1007.72;;;31.27;64.25
37170;BME280;23062;13.952;100.608;2023-07-02T12:24:22;1007.88;;;31.27;64.62
37170;BME280;23062;13.952;100.608;2023-07-02T12:28:50;1007.93;;;31.29;65.02
37170;BME280;23062;13.952;100.608;2023-07-02T12:33:17;1007.89;;;31.31;65.32
37170;BME280;23062;13.952;100.608;2023-07-02T12:37:49;1007.97;;;31.29;65.49
37170;BME280;23062;13.952;100.608;2023-07-02T12:42:16;1008.14;;;31.37;65.30
37170;BME280;23062;13.952;100.608;2023-07-02T12:46:43;1008.24;;;31.44;65.10
37170;BME280;23062;13.952;100.608;2023-07-02T12:51:18;1008.46;;;31.49;65.00
37170;BME280;23062;13.952;100.608;2023-07-02T12:55:46;1008.59;;;31.54;64.89
37170;BME280;23062;13.952;100.608;2023-07-02T13:00:12;1008.59;;;31.54;65.01
37170;BME280;23062;13.952;100.608;2023-07-02T13:04:40;1008.65;;;31.63;64.82
37170;BME280;23062;13.952;100.608;2023-07-02T13:09:13;1008.66;;;31.62;64.94
37170;BME280;23062;13.952;100.608;2023-07-02T13:13:40;1008.66;;;31.63;64.96
37170;BME280;23062;13.952;100.608;2023-07-02T13:18:16;1008.70;;;31.67;64.79
37170;BME280;23062;13.952;100.608;2023-07-02T13:22:44;1008.78;;;31.69;64.88
37170;BME280;23062;13.952;100.608;2023-07-02T13:27:12;1008.75;;;31.69;64.78
37170;BME280;23062;13.952;100.608;2023-07-02T13:31:38;1008.82;;;31.72;64.64
37170;BME280;23062;13.952;100.608;2023-07-02T13:36:04;1008.92;;;31.71;64.73
37170;BME280;23062;13.952;100.608;2023-07-02T13:40:33;1008.95;;;31.73;64.59
37170;BME280;23062;13.952;100.608;2023-07-02T13:45:08;1008.97;;;31.71;64.77
37170;BME280;23062;13.952;100.608;2023-07-02T13:49:34;1009.05;;;31.71;65.00
37170;BME280;23062;13.952;100.608;2023-07-02T13:54:01;1009.13;;;31.72;64.90
37170;BME280;23062;13.952;100.608;2023-07-02T14:03:00;1009.25;;;31.68;64.83
37170;BME280;23062;13.952;100.608;2023-07-02T14:07:28;1009.32;;;31.74;64.86
37170;BME280;23062;13.952;100.608;2023-07-02T14:12:08;1009.34;;;31.74;64.92
37170;BME280;23062;13.952;100.608;2023-07-02T14:16:36;1009.48;;;31.73;65.17
37170;BME280;23062;13.952;100.608;2023-07-02T14:21:03;1009.65;;;31.75;65.20
37170;BME280;23062;13.952;100.608;2023-07-02T14:25:31;1009.71;;;31.76;65.26
37170;BME280;23062;13.952;100.608;2023-07-02T14:29:58;1009.71;;;31.74;65.30
37170;BME280;23062;13.952;100.608;2023-07-02T14:34:26;1009.72;;;31.74;65.17
37170;BME280;23062;13.952;100.608;2023-07-02T14:38:55;1009.72;;;31.75;65.10
37170;BME280;23062;13.952;100.608;2023-07-02T14:43:26;1009.75;;;31.75;65.19
37170;BME280;23062;13.952;100.608;2023-07-02T14:47:53;1009.74;;;31.77;64.92
37170;BME280;23062;13.952;100.608;2023-07-02T14:52:23;1009.76;;;31.76;64.86
37170;BME280;23062;13.952;100.608;2023-07-02T14:56:58;1009.77;;;31.73;64.97
37170;BME280;23062;13.952;100.608;2023-07-02T15:01:30;1009.86;;;31.75;64.87
37170;BME280;23062;13.952;100.608;2023-07-02T15:06:17;1009.88;;;31.75;64.86
37170;BME280;23062;13.952;100.608;2023-07-02T15:10:46;1009.84;;;31.74;64.96
37170;BME280;23062;13.952;100.608;2023-07-02T15:15:12;1009.81;;;31.73;64.87
37170;BME280;23062;13.952;100.608;2023-07-02T15:19:39;1009.79;;;31.75;65.19
37170;BME280;23062;13.952;100.608;2023-07-02T15:24:06;1009.84;;;31.74;65.26
37170;BME280;23062;13.952;100.608;2023-07-02T15:28:41;1009.88;;;31.73;65.42
37170;BME280;23062;13.952;100.608;2023-07-02T15:33:07;1009.95;;;31.72;65.51
37170;BME280;23062;13.952;100.608;2023-07-02T15:37:34;1009.97;;;31.73;65.61
37170;BME280;23062;13.952;100.608;2023-07-02T15:42:04;1009.98;;;31.71;65.73
37170;BME280;23062;13.952;100.608;2023-07-02T15:46:30;1010.00;;;31.72;65.77
37170;BME280;23062;13.952;100.608;2023-07-02T15:50:58;1010.07;;;31.73;65.78
37170;BME280;23062;13.952;100.608;2023-07-02T15:55:26;1010.12;;;31.74;65.61
37170;BME280;23062;13.952;100.608;2023-07-02T15:59:55;1010.14;;;31.74;65.71
37170;BME280;23062;13.952;100.608;2023-07-02T16:04:22;1010.10;;;31.73;65.70
37170;BME280;23062;13.952;100.608;2023-07-02T16:08:56;1010.09;;;31.73;65.65
37170;BME280;23062;13.952;100.608;2023-07-02T16:13:48;1010.03;;;31.72;65.62
37170;BME280;23062;13.952;100.608;2023-07-02T16:18:18;1010.02;;;31.72;65.63
37170;BME280;23062;13.952;100.608;2023-07-02T16:22:49;1010.01;;;31.72;65.74
37170;BME280;23062;13.952;100.608;2023-07-02T16:27:18;1010.03;;;31.71;65.73
37170;BME280;23062;13.952;100.608;2023-07-02T16:31:51;1010.02;;;31.71;65.72
37170;BME280;23062;13.952;100.608;2023-07-02T16:36:20;1009.95;;;31.69;65.65
37170;BME280;23062;13.952;100.608;2023-07-02T16:40:47;1009.92;;;31.68;65.67
37170;BME280;23062;13.952;100.608;2023-07-02T16:45:19;1009.85;;;31.68;65.56
37170;BME280;23062;13.952;100.608;2023-07-02T16:49:45;1009.79;;;31.68;65.71
37170;BME280;23062;13.952;100.608;2023-07-02T16:54:21;1009.75;;;31.68;65.76
37170;BME280;23062;13.952;100.608;2023-07-02T16:58:53;1009.76;;;31.69;65.76
37170;BME280;23062;13.952;100.608;2023-07-02T17:03:20;1009.76;;;31.66;66.10
37170;BME280;23062;13.952;100.608;2023-07-02T17:07:46;1009.75;;;31.68;66.07
37170;BME280;23062;13.952;100.608;2023-07-02T17:12:18;1009.72;;;31.68;66.17
37170;BME280;23062;13.952;100.608;2023-07-02T17:16:46;1009.72;;;31.67;66.49
37170;BME280;23062;13.952;100.608;2023-07-02T17:21:14;1009.72;;;31.68;66.42
37170;BME280;23062;13.952;100.608;2023-07-02T17:25:40;1009.73;;;31.67;66.55
37170;BME280;23062;13.952;100.608;2023-07-02T17:30:09;1009.65;;;31.62;66.80
37170;BME280;23062;13.952;100.608;2023-07-02T17:34:38;1009.57;;;31.65;66.77
37170;BME280;23062;13.952;100.608;2023-07-02T17:39:06;1009.60;;;31.64;66.93
37170;BME280;23062;13.952;100.608;2023-07-02T17:43:32;1009.54;;;31.64;66.90
37170;BME280;23062;13.952;100.608;2023-07-02T17:47:59;1009.54;;;31.65;66.90
37170;BME280;23062;13.952;100.608;2023-07-02T17:52:25;1009.48;;;31.64;66.99
37170;BME280;23062;13.952;100.608;2023-07-02T17:56:58;1009.44;;;31.61;67.14
37170;BME280;23062;13.952;100.608;2023-07-02T18:01:24;1009.34;;;31.64;67.17
37170;BME280;23062;13.952;100.608;2023-07-02T18:05:50;1009.30;;;31.60;67.47
37170;BME280;23062;13.952;100.608;2023-07-02T18:10:17;1009.20;;;31.60;67.33
37170;BME280;23062;13.952;100.608;2023-07-02T18:14:52;1009.25;;;31.61;67.46
37170;BME280;23062;13.952;100.608;2023-07-02T18:19:19;1009.14;;;31.58;67.58
37170;BME280;23062;13.952;100.608;2023-07-02T18:23:55;1009.10;;;31.59;67.60
37170;BME280;23062;13.952;100.608;2023-07-02T18:28:26;1009.11;;;31.61;67.68
37170;BME280;23062;13.952;100.608;2023-07-02T18:32:55;1009.00;;;31.58;67.89
37170;BME280;23062;13.952;100.608;2023-07-02T18:37:22;1009.02;;;31.60;67.95
37170;BME280;23062;13.952;100.608;2023-07-02T18:41:54;1008.99;;;31.55;68.23
37170;BME280;23062;13.952;100.608;2023-07-02T18:46:29;1008.99;;;31.60;68.09
37170;BME280;23062;13.952;100.608;2023-07-02T18:50:58;1008.97;;;31.57;68.38
37170;BME280;23062;13.952;100.608;2023-07-02T18:55:27;1008.87;;;31.55;68.51
37170;BME280;23062;13.952;100.608;2023-07-02T19:00:00;1008.89;;;31.56;68.74
37170;BME280;23062;13.952;100.608;2023-07-02T19:04:35;1008.86;;;31.58;68.41
37170;BME280;23062;13.952;100.608;2023-07-02T19:09:02;1008.84;;;31.53;68.25
37170;BME280;23062;13.952;100.608;2023-07-02T19:13:28;1008.78;;;31.52;67.88
37170;BME280;23062;13.952;100.608;2023-07-02T19:18:00;1008.81;;;31.52;67.53
37170;BME280;23062;13.952;100.608;2023-07-02T19:22:28;1008.86;;;31.51;67.03
37170;BME280;23062;13.952;100.608;2023-07-02T19:26:55;1008.82;;;31.50;66.44
37170;BME280;23062;13.952;100.608;2023-07-02T19:31:22;1008.77;;;31.46;66.37
37170;BME280;23062;13.952;100.608;2023-07-02T19:35:55;1008.81;;;31.45;66.00
37170;BME280;23062;13.952;100.608;2023-07-02T19:40:22;1008.82;;;31.46;65.76
37170;BME280;23062;13.952;100.608;2023-07-02T19:44:57;1008.78;;;31.44;65.60
37170;BME280;23062;13.952;100.608;2023-07-02T19:49:26;1008.77;;;31.46;65.51
37170;BME280;23062;13.952;100.608;2023-07-02T19:53:53;1008.75;;;31.38;65.50
37170;BME280;23062;13.952;100.608;2023-07-02T19:58:20;1008.72;;;31.39;65.38
37170;BME280;23062;13.952;100.608;2023-07-02T20:02:48;1008.67;;;31.39;65.46
37170;BME280;23062;13.952;100.608;2023-07-02T20:07:16;1008.58;;;31.36;65.37
37170;BME280;23062;13.952;100.608;2023-07-02T20:11:48;1008.53;;;31.17;65.94
37170;BME280;23062;13.952;100.608;2023-07-02T20:16:16;1008.48;;;31.01;66.44
37170;BME280;23062;13.952;100.608;2023-07-02T20:20:44;1008.49;;;30.92;66.74
37170;BME280;23062;13.952;100.608;2023-07-02T20:25:17;1008.43;;;30.86;67.36
37170;BME280;23062;13.952;100.608;2023-07-02T20:29:48;1008.47;;;30.86;67.37
37170;BME280;23062;13.952;100.608;2023-07-02T20:34:22;1008.47;;;30.87;67.48
37170;BME280;23062;13.952;100.608;2023-07-02T20:38:51;1008.43;;;30.82;67.88
37170;BME280;23062;13.952;100.608;2023-07-02T20:43:17;1008.40;;;30.79;68.22
37170;BME280;23062;13.952;100.608;2023-07-02T20:47:43;1008.35;;;30.76;68.52
37170;BME280;23062;13.952;100.608;2023-07-02T20:52:09;1008.38;;;30.71;69.18
37170;BME280;23062;13.952;100.608;2023-07-02T20:56:46;1008.36;;;30.65;69.34
37170;BME280;23062;13.952;100.608;2023-07-02T21:01:12;1008.36;;;30.57;69.84
37170;BME280;23062;13.952;100.608;2023-07-02T21:05:39;1008.35;;;30.59;69.99
37170;BME280;23062;13.952;100.608;2023-07-02T21:10:07;1008.30;;;30.55;70.30
37170;BME280;23062;13.952;100.608;2023-07-02T21:14:41;1008.33;;;30.56;70.59
37170;BME280;23062;13.952;100.608;2023-07-02T21:19:18;1008.28;;;30.59;70.78
37170;BME280;23062;13.952;100.608;2023-07-02T21:23:48;1008.28;;;30.51;70.91
37170;BME280;23062;13.952;100.608;2023-07-02T21:28:15;1008.26;;;30.52;70.92
37170;BME280;23062;13.952;100.608;2023-07-02T21:32:46;1008.34;;;30.54;71.04
37170;BME280;23062;13.952;100.608;2023-07-02T21:37:19;1008.38;;;30.53;71.12
37170;BME280;23062;13.952;100.608;2023-07-02T21:41:47;1008.36;;;30.56;71.23
37170;BME280;23062;13.952;100.608;2023-07-02T21:46:17;1008.39;;;30.59;71.10
37170;BME280;23062;13.952;100.608;2023-07-02T21:50:45;1008.34;;;30.54;71.28
37170;BME280;23062;13.952;100.608;2023-07-02T21:55:11;1008.33;;;30.34;72.19
37170;BME280;23062;13.952;100.608;2023-07-02T21:59:39;1008.37;;;30.37;72.35
37170;BME280;23062;13.952;100.608;2023-07-02T22:04:06;1008.36;;;30.40;72.06
37170;BME280;23062;13.952;100.608;2023-07-02T22:08:41;1008.42;;;30.33;73.02
37170;BME280;23062;13.952;100.608;2023-07-02T22:13:12;1008.47;;;30.30;73.13
37170;BME280;23062;13.952;100.608;2023-07-02T22:17:47;1008.53;;;29.96;74.97
37170;BME280;23062;13.952;100.608;2023-07-02T22:22:14;1008.53;;;29.83;75.95
37170;BME280;23062;13.952;100.608;2023-07-02T22:26:40;1008.53;;;29.51;77.85
37170;BME280;23062;13.952;100.608;2023-07-02T22:31:13;1008.54;;;29.59;77.42
37170;BME280;23062;13.952;100.608;2023-07-02T22:35:40;1008.50;;;30.00;77.08
37170;BME280;23062;13.952;100.608;2023-07-02T22:40:07;1008.50;;;30.11;75.69
37170;BME280;23062;13.952;100.608;2023-07-02T22:44:36;1008.52;;;30.19;75.32
37170;BME280;23062;13.952;100.608;2023-07-02T22:49:02;1008.57;;;30.23;74.97
37170;BME280;23062;13.952;100.608;2023-07-02T22:53:30;1008.63;;;30.28;74.79
37170;BME280;23062;13.952;100.608;2023-07-02T22:58:02;1008.70;;;30.28;74.80
37170;BME280;23062;13.952;100.608;2023-07-02T23:02:29;1008.76;;;30.28;75.17
37170;BME280;23062;13.952;100.608;2023-07-02T23:06:55;1008.82;;;30.32;74.73
37170;BME280;23062;13.952;100.608;2023-07-02T23:11:25;1008.84;;;30.29;75.01
37170;BME280;23062;13.952;100.608;2023-07-02T23:15:56;1008.90;;;30.34;74.91
37170;BME280;23062;13.952;100.608;2023-07-02T23:20:23;1008.99;;;30.32;75.00
37170;BME280;23062;13.952;100.608;2023-07-02T23:24:51;1009.20;;;30.34;74.93
37170;BME280;23062;13.952;100.608;2023-07-02T23:29:19;1009.33;;;30.36;74.76
37170;BME280;23062;13.952;100.608;2023-07-02T23:33:46;1009.49;;;30.36;74.88
37170;BME280;23062;13.952;100.608;2023-07-02T23:38:15;1009.50;;;30.42;74.58
37170;BME280;23062;13.952;100.608;2023-07-02T23:42:43;1009.47;;;30.38;74.83